Time;durP1;ratioP1;P1;durP2;ratioP2;P2;SDS_P1;SDS_P2;PMS_P1;PMS_P2;Temp;Humidity;BMP_temperature;BMP_pressure;BME280_temperature;BME280_humidity;BME280_pressure;Samples;Min_cycle;Max_cycle;Signal;HPM_P1;HPM_P2
2021/10/14 00:00:43;;;;;;;7.17;6.50;;;;;;;4.34;100.00;98971.94;4971481;28;20206;-72
2021/10/14 00:03:12;;;;;;;7.57;6.67;;;;;;;4.33;100.00;98965.03;4971587;28;20209;-71
2021/10/14 00:05:40;;;;;;;6.47;5.87;;;;;;;4.38;100.00;98977.84;4982353;28;20232;-72
2021/10/14 00:08:08;;;;;;;7.03;6.10;;;;;;;4.37;100.00;98975.34;4978501;28;20538;-71
2021/10/14 00:10:37;;;;;;;6.70;6.10;;;;;;;4.37;100.00;98983.22;4978965;28;20256;-72
2021/10/14 00:13:07;;;;;;;5.33;4.93;;;;;;;4.34;100.00;98985.06;4976253;28;20307;-71
2021/10/14 00:15:35;;;;;;;6.03;5.47;;;;;;;4.38;100.00;98974.41;4940501;28;20369;-71
2021/10/14 00:18:03;;;;;;;6.40;5.80;;;;;;;4.39;100.00;98976.09;4969166;28;20288;-71
2021/10/14 00:20:31;;;;;;;6.57;5.97;;;;;;;4.41;100.00;98969.78;4979683;28;20418;-71
2021/10/14 00:22:59;;;;;;;6.60;5.73;;;;;;;4.41;100.00;98959.28;4979500;28;20217;-71
2021/10/14 00:25:28;;;;;;;8.20;5.87;;;;;;;4.43;100.00;98961.81;4975128;28;20336;-72
2021/10/14 00:27:56;;;;;;;5.60;5.20;;;;;;;4.35;100.00;98962.31;4979502;28;20252;-71
2021/10/14 00:30:25;;;;;;;7.07;6.00;;;;;;;4.29;100.00;98965.34;4940221;28;20226;-72
2021/10/14 00:32:54;;;;;;;6.10;5.53;;;;;;;4.24;100.00;98959.56;4928717;28;20347;-72
2021/10/14 00:35:22;;;;;;;6.20;5.60;;;;;;;4.18;100.00;98951.16;4967032;28;20251;-71
2021/10/14 00:37:53;;;;;;;6.00;5.50;;;;;;;4.12;100.00;98955.94;4972400;28;20272;-72
2021/10/14 00:40:23;;;;;;;6.67;6.07;;;;;;;4.01;100.00;98959.25;4951675;28;20229;-71
2021/10/14 00:42:52;;;;;;;6.97;6.37;;;;;;;3.98;100.00;98957.69;4973834;28;20217;-71
2021/10/14 00:45:20;;;;;;;7.77;6.10;;;;;;;3.98;100.00;98959.44;4976666;28;20233;-71
2021/10/14 00:47:50;;;;;;;6.33;5.83;;;;;;;3.96;100.00;98945.59;4941503;28;20222;-72
2021/10/14 00:50:18;;;;;;;6.57;5.90;;;;;;;3.92;100.00;98950.19;4969159;28;20206;-72
2021/10/14 00:52:46;;;;;;;7.37;6.27;;;;;;;3.96;100.00;98949.03;4976834;28;20401;-72
2021/10/14 00:55:16;;;;;;;7.97;6.40;;;;;;;4.05;100.00;98951.09;4950928;28;20552;-71
2021/10/14 00:57:44;;;;;;;7.33;6.47;;;;;;;4.09;100.00;98956.13;4972343;28;20224;-72
2021/10/14 01:00:12;;;;;;;10.70;6.97;;;;;;;4.07;100.00;98948.34;4967308;28;20736;-71
2021/10/14 01:02:41;;;;;;;7.63;6.90;;;;;;;4.09;100.00;98945.66;4943991;28;20230;-72
2021/10/14 01:05:11;;;;;;;8.03;7.10;;;;;;;4.12;100.00;98955.94;4970836;28;20334;-71
2021/10/14 01:07:40;;;;;;;8.20;7.37;;;;;;;4.18;100.00;98956.38;4978035;28;20205;-72
2021/10/14 01:10:10;;;;;;;8.43;7.33;;;;;;;4.21;100.00;98957.97;4963676;28;20556;-71
2021/10/14 01:12:38;;;;;;;8.70;7.80;;;;;;;4.26;100.00;98963.75;4964086;28;20213;-71
2021/10/14 01:15:18;;;;;;;7.43;6.73;;;;;;;4.30;100.00;98951.28;4978617;28;20813;-71
2021/10/14 01:17:46;;;;;;;8.50;6.93;;;;;;;4.36;100.00;98940.38;4983012;28;20213;-72
2021/10/14 01:20:15;;;;;;;7.50;6.67;;;;;;;4.35;100.00;98944.75;4941816;28;20474;-72
2021/10/14 01:22:44;;;;;;;9.07;7.40;;;;;;;4.38;100.00;98940.28;4980588;28;20323;-72
2021/10/14 01:25:12;;;;;;;7.57;6.63;;;;;;;4.33;100.00;98938.78;4965518;28;20244;-71
2021/10/14 01:27:40;;;;;;;8.40;7.60;;;;;;;4.40;100.00;98928.72;4968147;28;20651;-72
2021/10/14 01:30:09;;;;;;;8.43;6.83;;;;;;;4.45;100.00;98913.50;4975580;28;20369;-71
2021/10/14 01:32:38;;;;;;;8.07;6.83;;;;;;;4.54;100.00;98925.19;4983193;28;20678;-71
2021/10/14 01:35:07;;;;;;;7.90;7.13;;;;;;;4.56;100.00;98927.72;4938646;28;20280;-71
2021/10/14 01:37:37;;;;;;;7.13;6.43;;;;;;;4.60;100.00;98929.19;4977773;28;20217;-72
2021/10/14 01:40:06;;;;;;;8.83;8.03;;;;;;;4.57;100.00;98940.72;4975388;28;20209;-71
2021/10/14 01:42:34;;;;;;;8.57;7.67;;;;;;;4.59;100.00;98927.50;4964874;28;20214;-72
2021/10/14 01:45:03;;;;;;;9.33;7.20;;;;;;;4.60;100.00;98916.06;4946056;28;20334;-72
2021/10/14 01:47:31;;;;;;;9.23;7.80;;;;;;;4.57;100.00;98903.16;4978501;28;20721;-71
2021/10/14 01:50:00;;;;;;;8.30;7.40;;;;;;;4.56;100.00;98912.78;4943887;28;20217;-72
2021/10/14 01:52:28;;;;;;;9.97;8.30;;;;;;;4.59;100.00;98915.22;4969863;28;20210;-71
2021/10/14 01:54:57;;;;;;;11.33;8.47;;;;;;;4.64;100.00;98909.66;4978692;28;20248;-71
2021/10/14 01:57:25;;;;;;;10.90;8.87;;;;;;;4.64;100.00;98926.25;4964143;28;20214;-71
2021/10/14 01:59:54;;;;;;;11.63;8.80;;;;;;;4.72;100.00;98917.84;4962816;28;20626;-72
2021/10/14 02:02:22;;;;;;;9.90;8.07;;;;;;;4.69;100.00;98917.22;4978276;28;20213;-71
2021/10/14 02:04:50;;;;;;;9.53;8.27;;;;;;;4.71;100.00;98910.91;4944832;28;20664;-71
2021/10/14 02:07:18;;;;;;;10.17;8.17;;;;;;;4.79;100.00;98905.16;4972702;28;20221;-71
2021/10/14 02:09:46;;;;;;;10.63;8.50;;;;;;;4.76;100.00;98914.06;4978008;28;20228;-72
2021/10/14 02:12:16;;;;;;;10.93;9.20;;;;;;;4.90;100.00;98914.91;4977607;28;20217;-70
2021/10/14 02:14:44;;;;;;;11.97;8.80;;;;;;;4.85;100.00;98912.63;4959025;28;20727;-71
2021/10/14 02:17:12;;;;;;;10.13;8.63;;;;;;;4.86;100.00;98902.94;4960799;28;20225;-71
2021/10/14 02:19:40;;;;;;;10.17;8.70;;;;;;;4.97;100.00;98904.81;4946974;28;20501;-72
2021/10/14 02:22:08;;;;;;;9.33;8.37;;;;;;;4.94;100.00;98900.66;4975628;28;20213;-71
2021/10/14 02:24:36;;;;;;;8.70;7.80;;;;;;;4.94;100.00;98905.91;4974876;28;20237;-74
2021/10/14 02:27:05;;;;;;;8.70;7.80;;;;;;;4.94;100.00;98908.53;4981341;28;20293;-72
2021/10/14 02:29:34;;;;;;;9.83;8.83;;;;;;;4.95;100.00;98914.59;4961060;28;20628;-72
2021/10/14 02:32:03;;;;;;;8.60;7.70;;;;;;;5.07;100.00;98913.75;4968501;28;20219;-70
2021/10/14 02:34:31;;;;;;;8.90;8.00;;;;;;;5.06;100.00;98912.06;4942981;28;20244;-72
2021/10/14 02:36:59;;;;;;;12.90;8.90;;;;;;;5.09;100.00;98913.66;4973785;28;20205;-73
2021/10/14 02:39:27;;;;;;;9.70;8.80;;;;;;;5.05;100.00;98907.75;4937018;28;20500;-73
2021/10/14 02:41:55;;;;;;;10.80;8.43;;;;;;;5.09;100.00;98908.41;4971846;28;20224;-72
2021/10/14 02:44:24;;;;;;;12.30;9.33;;;;;;;5.08;100.00;98904.91;4977789;28;20256;-72
2021/10/14 02:46:53;;;;;;;11.23;9.47;;;;;;;5.12;100.00;98905.56;4967727;28;20208;-72
2021/10/14 02:49:22;;;;;;;9.73;8.07;;;;;;;5.13;100.00;98904.59;4974828;28;20216;-73
2021/10/14 02:51:50;;;;;;;13.37;9.43;;;;;;;5.12;100.00;98906.41;4966168;28;20281;-72
2021/10/14 02:54:18;;;;;;;13.90;9.97;;;;;;;5.16;100.00;98901.75;4941841;28;20510;-73
2021/10/14 02:56:46;;;;;;;11.63;10.37;;;;;;;5.18;100.00;98895.47;4966996;28;20202;-71
2021/10/14 02:59:14;;;;;;;10.97;9.67;;;;;;;5.18;100.00;98891.97;4967929;28;20214;-73
2021/10/14 03:01:43;;;;;;;13.23;9.77;;;;;;;5.16;100.00;98897.38;4973618;28;20206;-71
2021/10/14 03:04:12;;;;;;;10.20;8.53;;;;;;;5.13;100.00;98889.69;4969084;28;20591;-73
2021/10/14 03:06:41;;;;;;;13.27;9.20;;;;;;;5.19;100.00;98902.41;4968488;28;20682;-72
2021/10/14 03:09:09;;;;;;;9.77;8.77;;;;;;;5.18;100.00;98900.72;4974263;28;20220;-73
2021/10/14 03:11:37;;;;;;;9.83;8.93;;;;;;;5.27;100.00;98898.41;4935512;28;20222;-71
2021/10/14 03:14:05;;;;;;;10.27;9.17;;;;;;;5.26;100.00;98904.59;4973285;28;20997;-72
2021/10/14 03:16:33;;;;;;;12.13;9.10;;;;;;;5.22;100.00;98894.31;4976901;28;20233;-71
2021/10/14 03:19:01;;;;;;;9.57;8.60;;;;;;;5.22;100.00;98896.94;4974727;28;20231;-73
2021/10/14 03:21:31;;;;;;;8.87;7.97;;;;;;;5.20;100.00;98900.59;4974517;28;20214;-72
2021/10/14 03:23:59;;;;;;;13.33;9.47;;;;;;;5.26;100.00;98899.34;4964621;28;20438;-73
2021/10/14 03:26:28;;;;;;;9.60;8.57;;;;;;;5.27;100.00;98895.75;4941083;28;20698;-72
2021/10/14 03:28:59;;;;;;;12.50;9.53;;;;;;;5.26;100.00;98892.28;4973122;28;20536;-72
2021/10/14 03:31:27;;;;;;;12.27;9.13;;;;;;;5.20;100.00;98890.94;4965310;28;20427;-72
2021/10/14 03:33:56;;;;;;;13.23;10.20;;;;;;;5.27;100.00;98898.41;4978865;28;20240;-72
2021/10/14 03:36:24;;;;;;;10.50;8.27;;;;;;;5.25;100.00;98898.47;4969612;28;20230;-72
2021/10/14 03:38:54;;;;;;;9.63;8.60;;;;;;;5.25;100.00;98905.53;4970513;28;20685;-73
2021/10/14 03:41:22;;;;;;;12.40;10.53;;;;;;;5.24;100.00;98901.25;4940586;28;20437;-72
2021/10/14 03:43:50;;;;;;;12.23;9.70;;;;;;;5.30;100.00;98896.41;4958747;28;20252;-72
2021/10/14 03:46:18;;;;;;;10.13;9.13;;;;;;;5.26;100.00;98902.78;4976277;28;20209;-72
2021/10/14 03:48:47;;;;;;;10.03;8.87;;;;;;;5.28;100.00;98910.59;4980768;28;20591;-72
2021/10/14 03:51:15;;;;;;;9.43;8.40;;;;;;;5.29;100.00;98907.84;4974035;28;20213;-71
2021/10/14 03:53:43;;;;;;;12.40;9.07;;;;;;;5.26;100.00;98905.41;4970430;28;20726;-72
2021/10/14 03:56:12;;;;;;;10.97;9.27;;;;;;;5.23;100.00;98905.63;4939766;28;20245;-71
2021/10/14 03:58:40;;;;;;;13.50;9.83;;;;;;;5.22;100.00;98910.06;4972566;28;20454;-72
2021/10/14 04:01:08;;;;;;;9.37;8.47;;;;;;;5.21;100.00;98916.28;4972367;28;20216;-71
2021/10/14 04:03:37;;;;;;;10.67;9.10;;;;;;;5.15;100.00;98914.06;4974824;28;20753;-73
2021/10/14 04:06:05;;;;;;;10.87;9.17;;;;;;;5.14;100.00;98922.91;4974748;28;20209;-71
2021/10/14 04:08:33;;;;;;;10.43;9.30;;;;;;;5.11;100.00;98915.22;4965504;28;20367;-73
2021/10/14 04:11:01;;;;;;;11.10;10.00;;;;;;;5.11;100.00;98923.09;4943270;28;20232;-72
2021/10/14 04:13:30;;;;;;;10.77;9.43;;;;;;;5.17;100.00;98922.69;4970945;28;20506;-71
2021/10/14 04:15:58;;;;;;;10.90;8.90;;;;;;;5.13;100.00;98918.59;4972649;28;20232;-67
2021/10/14 04:18:27;;;;;;;10.47;8.27;;;;;;;5.14;100.00;98924.69;4969124;28;20405;-68
2021/10/14 04:20:55;;;;;;;11.27;9.67;;;;;;;5.14;100.00;98930.78;4975919;28;20231;-68
2021/10/14 04:23:23;;;;;;;12.57;10.20;;;;;;;5.23;100.00;98929.28;4964209;28;20214;-68
2021/10/14 04:25:51;;;;;;;12.40;9.57;;;;;;;5.20;100.00;98927.72;4972140;28;20210;-68
2021/10/14 04:28:19;;;;;;;10.47;9.10;;;;;;;5.22;100.00;98938.13;4938120;28;20505;-68
2021/10/14 04:30:49;;;;;;;12.50;10.00;;;;;;;5.16;100.00;98930.66;4976389;28;20209;-68
2021/10/14 04:33:17;;;;;;;13.07;10.73;;;;;;;5.16;100.00;98936.78;4974061;28;20698;-67
2021/10/14 04:35:46;;;;;;;11.63;10.27;;;;;;;5.14;100.00;98932.56;4976385;28;20580;-68
2021/10/14 04:38:16;;;;;;;12.03;10.27;;;;;;;5.22;100.00;98933.72;4960150;28;20206;-67
2021/10/14 04:40:45;;;;;;;11.57;10.37;;;;;;;5.24;100.00;98927.50;4978395;28;20252;-68
2021/10/14 04:43:13;;;;;;;10.83;9.73;;;;;;;5.24;100.00;98930.16;4935253;28;20229;-66
2021/10/14 04:45:41;;;;;;;10.93;9.77;;;;;;;5.35;100.00;98931.09;4975008;28;20520;-69
2021/10/14 04:48:11;;;;;;;9.57;8.57;;;;;;;5.25;100.00;98931.81;4934880;28;20345;-69
2021/10/14 04:50:42;;;;;;;10.60;9.20;;;;;;;5.24;100.00;98938.03;4959623;28;20224;-67
2021/10/14 04:53:11;;;;;;;11.17;9.43;;;;;;;5.19;100.00;98928.69;4975762;28;20260;-68
2021/10/14 04:55:40;;;;;;;12.33;9.87;;;;;;;5.28;100.00;98931.59;4959756;28;20229;-66
2021/10/14 04:58:08;;;;;;;12.00;9.43;;;;;;;5.18;100.00;98923.53;4963494;28;20415;-69
2021/10/14 05:00:36;;;;;;;10.33;8.97;;;;;;;5.15;100.00;98929.84;4969678;28;20225;-67
2021/10/14 05:03:04;;;;;;;9.33;8.13;;;;;;;5.15;100.00;98919.34;4940597;28;20236;-68
2021/10/14 05:05:39;;;;;;;9.20;8.17;;;;;;;5.16;100.00;98915.75;4959885;28;20346;-66
2021/10/14 05:08:08;;;;;;;10.03;8.70;;;;;;;5.16;100.00;98926.28;4973405;28;20631;-68
2021/10/14 05:10:36;;;;;;;9.63;8.73;;;;;;;5.14;100.00;98922.06;4967107;28;20217;-66
2021/10/14 05:13:04;;;;;;;9.83;8.83;;;;;;;5.16;100.00;98922.78;4965310;28;20405;-69
2021/10/14 05:15:32;;;;;;;13.47;9.20;;;;;;;5.18;100.00;98929.63;4973719;28;20769;-67
2021/10/14 05:18:00;;;;;;;11.20;9.20;;;;;;;5.21;100.00;98928.56;4940901;28;20592;-68
2021/10/14 05:20:28;;;;;;;9.13;8.23;;;;;;;5.19;100.00;98930.47;4963603;28;20217;-67
2021/10/14 05:22:58;;;;;;;10.80;8.80;;;;;;;5.17;100.00;98927.94;4976183;28;20400;-69
2021/10/14 05:25:26;;;;;;;9.93;8.93;;;;;;;5.17;100.00;98929.72;4974629;28;20236;-69
2021/10/14 05:27:54;;;;;;;11.70;9.67;;;;;;;5.21;100.00;98931.19;4960047;28;20693;-69
2021/10/14 05:30:22;;;;;;;13.43;11.00;;;;;;;5.21;100.00;98932.03;4978092;28;20316;-67
2021/10/14 05:32:51;;;;;;;13.23;10.43;;;;;;;5.13;100.00;98931.75;4977903;28;20370;-68
2021/10/14 05:35:34;;;;;;;10.10;8.87;;;;;;;5.16;100.00;98925.41;4916293;28;20230;-67
2021/10/14 05:38:04;;;;;;;12.93;10.30;;;;;;;5.13;100.00;98941.41;4968947;28;20300;-74
2021/10/14 05:40:32;;;;;;;12.73;10.40;;;;;;;5.13;100.00;98937.00;4959760;28;20760;-72
2021/10/14 05:43:02;;;;;;;10.83;9.60;;;;;;;5.13;100.00;98944.88;4959743;28;20313;-73
2021/10/14 05:45:30;;;;;;;13.07;10.50;;;;;;;5.20;100.00;98940.88;4974414;28;20233;-72
2021/10/14 05:47:58;;;;;;;11.10;9.60;;;;;;;5.20;100.00;98947.91;4971446;28;20210;-75
2021/10/14 05:50:26;;;;;;;12.07;10.87;;;;;;;5.33;100.00;98947.91;4941730;28;20232;-71
2021/10/14 05:52:54;;;;;;;11.83;10.27;;;;;;;5.32;100.00;98948.84;4960726;28;20832;-75
2021/10/14 05:55:24;;;;;;;12.67;9.83;;;;;;;5.38;100.00;98943.16;4972581;28;20606;-72
2021/10/14 05:57:52;;;;;;;12.00;10.70;;;;;;;5.36;100.00;98945.06;4961040;28;20453;-74
2021/10/14 06:00:21;;;;;;;12.63;11.33;;;;;;;5.39;100.00;98952.72;4967549;28;20272;-74
2021/10/14 06:02:49;;;;;;;14.87;11.40;;;;;;;5.57;100.00;98955.03;4973436;28;20322;-73
2021/10/14 06:05:18;;;;;;;13.27;11.87;;;;;;;5.41;100.00;98960.50;4975191;28;20300;-73
2021/10/14 06:07:47;;;;;;;13.17;11.07;;;;;;;5.38;100.00;98956.28;4928755;28;20214;-74
2021/10/14 06:10:15;;;;;;;15.33;10.70;;;;;;;5.36;100.00;98963.44;4982791;28;20572;-73
2021/10/14 06:12:45;;;;;;;15.07;12.43;;;;;;;5.37;100.00;98967.75;4958468;28;20213;-72
2021/10/14 06:15:13;;;;;;;13.37;11.37;;;;;;;5.33;100.00;98969.78;4964691;28;20230;-73
2021/10/14 06:17:41;;;;;;;17.37;11.37;;;;;;;5.32;100.00;98967.25;4975328;28;20236;-70
2021/10/14 06:20:10;;;;;;;14.10;11.50;;;;;;;5.31;100.00;98962.94;4978154;28;20213;-73
2021/10/14 06:22:38;;;;;;;12.90;11.27;;;;;;;5.36;100.00;98966.06;4929431;28;20234;-71
2021/10/14 06:25:07;;;;;;;11.37;10.27;;;;;;;5.36;100.00;98958.19;4979070;28;20226;-74
2021/10/14 06:27:35;;;;;;;16.47;10.93;;;;;;;5.40;100.00;98958.84;4964031;28;20698;-72
2021/10/14 06:30:06;;;;;;;12.47;10.33;;;;;;;5.51;100.00;98956.28;4966830;28;20212;-74
2021/10/14 06:32:34;;;;;;;13.63;10.97;;;;;;;5.46;100.00;98953.13;4974955;28;20222;-73
2021/10/14 06:35:02;;;;;;;11.93;10.20;;;;;;;5.49;100.00;98958.19;4957373;28;20224;-72
2021/10/14 06:37:32;;;;;;;18.27;13.73;;;;;;;5.45;100.00;98959.34;4933057;28;20232;-74
2021/10/14 06:40:00;;;;;;;12.17;10.97;;;;;;;5.40;100.00;98957.03;4963978;28;20231;-72
2021/10/14 06:42:28;;;;;;;14.47;12.17;;;;;;;5.42;100.00;98956.94;4965739;28;20276;-71
2021/10/14 06:44:56;;;;;;;18.77;11.90;;;;;;;5.38;100.00;98951.03;4974048;28;20263;-71
2021/10/14 06:47:26;;;;;;;14.83;12.53;;;;;;;5.46;100.00;98951.34;4972440;28;20404;-72
2021/10/14 06:49:54;;;;;;;15.30;12.90;;;;;;;5.47;100.00;98953.00;4979698;28;20229;-73
2021/10/14 06:52:22;;;;;;;20.87;16.70;;;;;;;5.41;100.00;98948.19;4945345;28;20410;-73
2021/10/14 06:54:50;;;;;;;16.60;12.63;;;;;;;5.48;100.00;98946.81;4972363;28;20225;-74
2021/10/14 06:57:18;;;;;;;16.47;14.23;;;;;;;5.47;100.00;98944.31;4935054;28;20237;-73
2021/10/14 06:59:46;;;;;;;16.57;13.23;;;;;;;5.53;100.00;98950.94;4968982;28;20221;-72
2021/10/14 07:02:15;;;;;;;25.87;17.87;;;;;;;5.62;100.00;98958.16;4974558;28;20214;-75
2021/10/14 07:04:44;;;;;;;22.00;15.97;;;;;;;5.61;100.00;98953.84;4973025;28;20226;-73
2021/10/14 07:07:12;;;;;;;18.70;12.90;;;;;;;5.59;100.00;98955.75;4975077;28;20208;-74
2021/10/14 07:09:41;;;;;;;14.20;12.30;;;;;;;5.62;100.00;98956.34;4972677;28;20829;-72
2021/10/14 07:12:10;;;;;;;25.87;15.93;;;;;;;5.68;100.00;98962.13;4941037;28;20565;-74
2021/10/14 07:14:38;;;;;;;17.67;13.40;;;;;;;5.71;100.00;98961.94;4975473;28;20747;-73
2021/10/14 07:17:06;;;;;;;17.30;12.03;;;;;;;5.72;100.00;98961.81;4977585;28;20466;-73
2021/10/14 07:19:35;;;;;;;18.03;13.63;;;;;;;5.80;100.00;98962.09;4979003;28;20205;-71
2021/10/14 07:22:05;;;;;;;20.13;14.53;;;;;;;5.79;100.00;98962.22;4975690;28;20820;-73
2021/10/14 07:24:33;;;;;;;17.47;13.90;;;;;;;5.87;100.00;98966.91;4975927;28;20687;-71
2021/10/14 07:27:01;;;;;;;19.90;15.23;;;;;;;5.94;100.00;98965.53;4942858;28;20416;-73
2021/10/14 07:29:29;;;;;;;13.50;10.93;;;;;;;5.82;100.00;98963.78;4968376;28;20214;-70
2021/10/14 07:32:00;;;;;;;14.07;11.83;;;;;;;5.85;100.00;98959.16;4974952;28;20212;-71
2021/10/14 07:34:28;;;;;;;14.57;11.33;;;;;;;5.91;100.00;98969.22;4979235;28;20320;-72
2021/10/14 07:36:56;;;;;;;24.20;16.20;;;;;;;5.91;100.00;98971.84;4973140;28;20236;-74
2021/10/14 07:39:26;;;;;;;18.07;12.77;;;;;;;5.90;100.00;98977.25;4974069;28;20214;-72
2021/10/14 07:41:55;;;;;;;25.83;17.27;;;;;;;6.08;100.00;98978.56;4937174;28;21661;-74
2021/10/14 07:44:24;;;;;;;28.30;18.50;;;;;;;6.18;100.00;98976.13;4976628;28;20304;-73
2021/10/14 07:46:52;;;;;;;14.90;11.90;;;;;;;6.18;100.00;98986.66;4976414;28;20315;-70
2021/10/14 07:49:21;;;;;;;13.40;11.10;;;;;;;6.23;100.00;98987.16;4980382;28;20217;-73
2021/10/14 07:51:49;;;;;;;16.00;13.00;;;;;;;6.23;100.00;98984.50;4978215;28;20208;-71
2021/10/14 07:54:17;;;;;;;14.17;12.00;;;;;;;6.25;100.00;98981.78;4980536;28;20649;-72
2021/10/14 07:56:47;;;;;;;14.20;11.80;;;;;;;6.23;100.00;98983.66;4976572;28;20209;-70
2021/10/14 07:59:15;;;;;;;12.60;10.77;;;;;;;6.16;100.00;98985.91;4943027;28;20233;-75
2021/10/14 08:01:43;;;;;;;17.77;12.83;;;;;;;6.20;100.00;98982.09;4971058;28;20217;-71
2021/10/14 08:04:12;;;;;;;14.93;11.77;;;;;;;6.26;100.00;98990.50;4969691;28;20331;-74
2021/10/14 08:06:41;;;;;;;15.83;12.70;;;;;;;6.19;100.00;98980.44;4978145;28;20205;-71
2021/10/14 08:09:09;;;;;;;16.17;13.57;;;;;;;6.27;100.00;98981.66;4974389;28;20217;-73
2021/10/14 08:11:37;;;;;;;13.87;12.47;;;;;;;6.21;100.00;98985.56;4975450;28;20216;-71
2021/10/14 08:14:07;;;;;;;21.93;15.80;;;;;;;6.16;100.00;98980.66;4941940;28;20903;-73
2021/10/14 08:16:36;;;;;;;19.73;14.97;;;;;;;6.27;100.00;98984.28;4970130;28;20232;-73
2021/10/14 08:19:04;;;;;;;15.27;13.43;;;;;;;6.37;100.00;98990.56;4973176;28;20233;-72
2021/10/14 08:21:32;;;;;;;16.33;13.17;;;;;;;6.43;100.00;98986.63;4977405;28;20213;-74
2021/10/14 08:24:00;;;;;;;13.97;12.23;;;;;;;6.64;100.00;98981.56;4974693;28;20247;-74
2021/10/14 08:26:28;;;;;;;18.90;14.27;;;;;;;6.59;100.00;98978.44;4971627;28;20213;-71
2021/10/14 08:28:57;;;;;;;14.60;12.77;;;;;;;6.90;100.00;98976.16;4970351;28;20218;-74
2021/10/14 08:31:26;;;;;;;15.00;12.90;;;;;;;6.83;100.00;98974.94;4942440;28;20210;-74
2021/10/14 08:33:55;;;;;;;14.30;12.53;;;;;;;6.85;100.00;98979.13;4973655;28;20682;-74
2021/10/14 08:36:23;;;;;;;18.43;13.20;;;;;;;6.87;100.00;98979.84;4978582;28;20345;-72
2021/10/14 08:38:52;;;;;;;16.90;12.27;;;;;;;6.85;100.00;98988.84;4975334;28;20236;-72
2021/10/14 08:41:21;;;;;;;17.07;12.23;;;;;;;6.74;100.00;98981.72;4972286;28;20203;-73
2021/10/14 08:43:49;;;;;;;13.73;12.17;;;;;;;6.65;100.00;98983.25;4978170;28;20540;-70
2021/10/14 08:46:17;;;;;;;13.33;12.03;;;;;;;6.66;100.00;98982.28;4942924;28;20704;-73
2021/10/14 08:48:47;;;;;;;14.70;12.40;;;;;;;6.67;100.00;98978.72;4971280;28;20240;-70
2021/10/14 08:51:15;;;;;;;15.13;13.57;;;;;;;6.59;100.00;98979.25;4971549;28;20503;-74
2021/10/14 08:53:46;;;;;;;11.80;10.60;;;;;;;6.63;100.00;98974.63;4971586;28;20283;-72
2021/10/14 08:56:14;;;;;;;13.37;12.07;;;;;;;6.70;100.00;98975.00;4972575;28;20289;-73
2021/10/14 08:58:42;;;;;;;15.80;11.83;;;;;;;6.70;100.00;98975.84;4976652;28;20225;-73
2021/10/14 09:01:12;;;;;;;15.90;12.30;;;;;;;6.75;100.00;98970.22;4972572;28;20288;-73
2021/10/14 09:03:44;;;;;;;15.13;11.83;;;;;;;6.82;100.00;98971.44;4900017;28;20759;-71
2021/10/14 09:06:14;;;;;;;12.93;11.63;;;;;;;6.86;100.00;98979.97;4964476;28;20402;-71
2021/10/14 09:08:45;;;;;;;12.43;11.23;;;;;;;6.80;100.00;98968.09;4976232;28;20210;-70
2021/10/14 09:11:17;;;;;;;12.93;11.60;;;;;;;6.88;100.00;98968.34;4969162;28;20418;-72
2021/10/14 09:13:47;;;;;;;13.93;12.10;;;;;;;6.95;100.00;98972.19;4978222;28;20333;-71
2021/10/14 09:16:27;;;;;;;13.27;11.03;;;;;;;6.89;100.00;98970.03;4969087;28;20453;-71
2021/10/14 09:18:55;;;;;;;12.67;11.43;;;;;;;6.93;100.00;98976.72;4934223;28;20252;-70
2021/10/14 09:21:27;;;;;;;11.90;10.70;;;;;;;6.79;100.00;98967.22;4970875;28;20222;-74
2021/10/14 09:23:56;;;;;;;12.10;10.90;;;;;;;6.79;100.00;98972.50;4976267;28;20248;-70
2021/10/14 09:26:32;;;;;;;12.57;10.77;;;;;;;6.81;100.00;98973.22;4975868;28;20271;-73
2021/10/14 09:29:08;;;;;;;13.43;12.07;;;;;;;6.78;100.00;98972.63;4975393;28;20590;-73
2021/10/14 09:31:53;;;;;;;11.90;10.77;;;;;;;6.86;100.00;98966.78;4975651;28;20208;-73
2021/10/14 09:34:26;;;;;;;12.13;10.43;;;;;;;6.95;100.00;98966.09;4943530;28;20932;-73
2021/10/14 09:36:56;;;;;;;11.67;10.50;;;;;;;6.99;100.00;98969.31;4970628;28;20645;-73
2021/10/14 09:39:24;;;;;;;17.47;14.47;;;;;;;7.13;100.00;98965.63;4979174;28;20238;-73
2021/10/14 09:41:53;;;;;;;15.07;11.87;;;;;;;7.08;100.00;98968.63;4981442;28;20270;-72
2021/10/14 09:44:49;;;;;;;13.23;11.17;;;;;;;7.13;100.00;98961.22;4982767;28;20894;-74
2021/10/14 09:47:17;;;;;;;17.20;13.63;;;;;;;7.13;100.00;98958.56;4974511;28;20465;-71
2021/10/14 09:49:45;;;;;;;18.97;16.77;;;;;;;7.32;100.00;98962.41;4951602;28;20225;-73
2021/10/14 09:52:15;;;;;;;14.00;12.20;;;;;;;7.18;100.00;98955.56;4970298;28;20685;-71
2021/10/14 09:54:43;;;;;;;14.47;13.07;;;;;;;7.21;100.00;98958.00;4981983;28;20230;-70
2021/10/14 09:57:11;;;;;;;12.90;11.57;;;;;;;7.24;100.00;98957.75;4982619;28;20450;-71
2021/10/14 09:59:39;;;;;;;12.23;11.10;;;;;;;7.24;100.00;98948.03;4983311;28;20236;-73
2021/10/14 10:02:08;;;;;;;13.00;11.03;;;;;;;7.34;100.00;98960.47;4977002;28;20272;-73
2021/10/14 10:04:36;;;;;;;11.93;10.73;;;;;;;7.44;100.00;98958.84;4976988;28;20225;-73
2021/10/14 10:07:05;;;;;;;11.77;10.67;;;;;;;7.55;100.00;98957.13;4937994;28;20326;-72
2021/10/14 10:09:40;;;;;;;11.53;10.00;;;;;;;7.51;100.00;98952.09;4974792;28;20218;-73
2021/10/14 10:12:09;;;;;;;11.13;10.10;;;;;;;7.61;100.00;98961.94;4975888;28;20238;-70
2021/10/14 10:14:37;;;;;;;16.50;13.20;;;;;;;7.68;100.00;98957.84;4981012;28;20230;-72
2021/10/14 10:17:08;;;;;;;18.37;13.90;;;;;;;7.74;100.00;98959.97;4975220;28;20271;-70
2021/10/14 10:19:41;;;;;;;11.00;10.07;;;;;;;7.80;100.00;98948.97;4981131;28;20732;-71
2021/10/14 10:22:09;;;;;;;10.53;9.47;;;;;;;7.86;100.00;98946.78;4940283;28;20400;-71
2021/10/14 10:24:39;;;;;;;34.00;19.17;;;;;;;8.09;100.00;98945.75;4976443;28;20236;-72
2021/10/14 10:27:09;;;;;;;13.67;11.13;;;;;;;8.02;100.00;98939.31;4974971;28;20205;-72
2021/10/14 10:29:47;;;;;;;20.13;13.30;;;;;;;8.02;100.00;98949.03;4978620;28;20642;-73
2021/10/14 10:32:21;;;;;;;10.97;9.17;;;;;;;7.98;100.00;98951.06;4972621;28;20831;-73
2021/10/14 10:35:09;;;;;;;14.57;10.80;;;;;;;8.07;100.00;98954.78;4980520;28;20748;-70
2021/10/14 10:37:42;;;;;;;10.07;8.73;;;;;;;7.99;100.00;98951.94;4972421;28;20217;-73
2021/10/14 10:40:26;;;;;;;10.70;9.67;;;;;;;7.88;100.00;98945.69;4970763;28;20339;-73
2021/10/14 10:43:04;;;;;;;12.03;9.43;;;;;;;7.87;100.00;98949.28;4975595;28;20211;-72
2021/10/14 10:45:45;;;;;;;12.33;10.37;;;;;;;8.04;100.00;98950.56;4978697;28;20236;-73
2021/10/14 10:48:14;;;;;;;12.07;8.90;;;;;;;8.14;100.00;98953.31;4977107;28;20237;-72
2021/10/14 10:50:47;;;;;;;19.23;13.93;;;;;;;8.00;100.00;98943.03;4947274;28;20240;-73
2021/10/14 10:53:17;;;;;;;9.57;8.13;;;;;;;7.99;100.00;98942.19;4969328;28;20649;-73
2021/10/14 10:55:48;;;;;;;9.80;8.83;;;;;;;8.13;100.00;98938.44;4976172;28;20230;-72
2021/10/14 10:58:18;;;;;;;9.07;8.17;;;;;;;8.24;100.00;98945.47;4973761;28;20280;-73
2021/10/14 11:00:46;;;;;;;10.33;8.40;;;;;;;8.09;100.00;98934.38;4977153;28;20619;-70
2021/10/14 11:03:17;;;;;;;13.77;10.67;;;;;;;8.18;100.00;98938.91;4974731;28;20593;-73
2021/10/14 11:05:52;;;;;;;9.10;8.27;;;;;;;8.26;100.00;98923.25;4979817;28;20291;-73
2021/10/14 11:08:22;;;;;;;24.63;17.93;;;;;;;8.33;100.00;98918.31;4949601;28;20222;-71
2021/10/14 11:10:53;;;;;;;9.27;8.37;;;;;;;8.33;100.00;98926.22;4939217;28;20604;-71
2021/10/14 11:13:22;;;;;;;9.07;8.17;;;;;;;8.37;100.00;98924.19;4963846;28;20220;-72
2021/10/14 11:16:02;;;;;;;8.47;6.80;;;;;;;8.35;100.00;98916.38;4976837;28;20485;-73
2021/10/14 11:18:30;;;;;;;11.47;9.40;;;;;;;8.42;100.00;98918.50;4980210;28;20296;-73
2021/10/14 11:21:00;;;;;;;8.97;7.83;;;;;;;8.64;100.00;98914.94;4965956;28;20484;-72
2021/10/14 11:23:30;;;;;;;26.33;18.77;;;;;;;8.79;100.00;98913.66;4978997;28;20239;-71
2021/10/14 11:26:05;;;;;;;9.20;8.23;;;;;;;8.89;100.00;98915.53;4941483;28;20507;-75
2021/10/14 11:28:49;;;;;;;8.53;7.67;;;;;;;8.91;100.00;98909.16;4972938;28;20213;-69
2021/10/14 11:31:25;;;;;;;94.20;37.13;;;;;;;8.97;100.00;98905.13;4978552;28;20221;-72
2021/10/14 11:33:54;;;;;;;31.13;15.63;;;;;;;9.08;100.00;98912.13;4975967;28;20589;-73